createdAt,value
2024-04-10T00:00:00.556Z,1010.75
2024-04-10T00:01:00.627Z,1010.75
2024-04-10T00:02:00.598Z,1010.72
2024-04-10T00:03:00.492Z,1010.71
2024-04-10T00:04:00.599Z,1010.71
2024-04-10T00:05:00.800Z,1010.67
2024-04-10T00:06:00.578Z,1010.67
2024-04-10T00:07:00.444Z,1010.67
2024-04-10T00:08:00.538Z,1010.75
2024-04-10T00:09:00.456Z,1010.81
2024-04-10T00:10:00.502Z,1010.91
2024-04-10T00:11:00.462Z,1010.94
2024-04-10T00:12:00.678Z,1010.99
2024-04-10T00:13:00.418Z,1011.05
2024-04-10T00:14:00.512Z,1011.14
2024-04-10T00:15:00.492Z,1011.19
2024-04-10T00:16:00.366Z,1011.24
2024-04-10T00:17:00.452Z,1011.24
2024-04-10T00:19:00.504Z,1011.23
2024-04-10T00:20:00.462Z,1011.29
2024-04-10T00:21:00.329Z,1011.37
2024-04-10T00:22:00.309Z,1011.43
2024-04-10T00:23:00.371Z,1011.48
2024-04-10T00:24:00.305Z,1011.45
2024-04-10T00:25:00.307Z,1011.41
2024-04-10T00:26:00.351Z,1011.39
2024-04-10T00:27:00.443Z,1011.40
2024-04-10T00:28:00.578Z,1011.41
2024-04-10T00:29:00.742Z,1011.40
2024-04-10T00:30:01.348Z,1011.37
2024-04-10T00:31:00.303Z,1011.41
2024-04-10T00:32:00.251Z,1011.42
2024-04-10T00:33:00.316Z,1011.43
2024-04-10T00:34:00.318Z,1011.41
2024-04-10T00:35:00.254Z,1011.38
2024-04-10T00:36:00.172Z,1011.45
2024-04-10T00:37:00.191Z,1011.44
2024-04-10T00:38:00.253Z,1011.49
2024-04-10T00:39:00.248Z,1011.51
2024-04-10T00:40:00.213Z,1011.53
2024-04-10T00:41:00.159Z,1011.53
2024-04-10T00:42:00.139Z,1011.52
2024-04-10T00:43:00.145Z,1011.47
2024-04-10T00:44:00.142Z,1011.43
2024-04-10T00:45:00.121Z,1011.39
2024-04-10T00:46:00.087Z,1011.38
2024-04-10T00:47:00.169Z,1011.41
2024-04-10T00:48:00.275Z,1011.46
2024-04-10T00:49:00.157Z,1011.54
2024-04-10T00:50:00.095Z,1011.57
2024-04-10T00:51:00.039Z,1011.60
2024-04-10T00:52:00.035Z,1011.62
2024-04-10T00:53:00.098Z,1011.64
2024-04-10T00:54:00.021Z,1011.62
2024-04-10T00:55:00.001Z,1011.60
2024-04-10T00:56:00.017Z,1011.58
2024-04-10T00:57:00.009Z,1011.60
2024-04-10T00:57:59.980Z,1011.59
2024-04-10T00:59:00.014Z,1011.58
2024-04-10T00:59:59.964Z,1011.55
2024-04-10T01:01:00.006Z,1011.53
2024-04-10T01:01:59.969Z,1011.45
2024-04-10T01:02:59.954Z,1011.44
2024-04-10T01:04:00.056Z,1011.46
2024-04-10T01:04:59.950Z,1011.47
2024-04-10T01:05:59.923Z,1011.51
2024-04-10T01:06:59.907Z,1011.53
2024-04-10T01:07:59.942Z,1011.58
2024-04-10T01:08:59.984Z,1011.61
2024-04-10T01:09:59.882Z,1011.67
2024-04-10T01:10:59.876Z,1011.69
2024-04-10T01:11:59.951Z,1011.71
2024-04-10T01:12:59.868Z,1011.69
2024-04-10T01:13:59.890Z,1011.69
2024-04-10T01:14:59.890Z,1011.71
2024-04-10T01:15:59.812Z,1011.74
2024-04-10T01:16:59.936Z,1011.77
2024-04-10T01:17:59.840Z,1011.83
2024-04-10T01:18:59.792Z,1011.89
2024-04-10T01:19:59.926Z,1011.94
2024-04-10T01:20:59.742Z,1011.97
2024-04-10T01:21:59.769Z,1011.99
2024-04-10T01:22:59.792Z,1012.01
2024-04-10T01:23:59.779Z,1012.02
2024-04-10T01:24:59.900Z,1012.03
2024-04-10T01:25:59.747Z,1012.06
2024-04-10T01:26:59.689Z,1012.10
2024-04-10T01:27:59.687Z,1012.09
2024-04-10T01:28:59.729Z,1012.10
2024-04-10T01:29:59.679Z,1012.11
2024-04-10T01:30:59.662Z,1012.11
2024-04-10T01:31:59.767Z,1012.12
2024-04-10T01:32:59.831Z,1012.10
2024-04-10T01:33:59.712Z,1012.08
2024-04-10T01:34:59.743Z,1012.06
2024-04-10T01:35:59.626Z,1012.03
2024-04-10T01:36:59.615Z,1012.03
2024-04-10T01:37:59.693Z,1012.04
2024-04-10T01:38:59.587Z,1012.09
2024-04-10T01:39:59.688Z,1012.10
2024-04-10T01:40:59.601Z,1012.08
2024-04-10T01:41:59.591Z,1012.06
2024-04-10T01:42:59.577Z,1012.04
2024-04-10T01:43:59.596Z,1012.02
2024-04-10T01:44:59.528Z,1012.03
2024-04-10T01:45:59.526Z,1012.09
2024-04-10T01:46:59.608Z,1012.13
2024-04-10T01:47:59.669Z,1012.17
2024-04-10T01:48:59.597Z,1012.20
2024-04-10T01:49:59.550Z,1012.20
2024-04-10T01:50:59.474Z,1012.18
2024-04-10T01:51:59.478Z,1012.18
2024-04-10T01:52:59.491Z,1012.19
2024-04-10T01:53:59.464Z,1012.19
2024-04-10T01:54:59.431Z,1012.22
2024-04-10T01:55:59.494Z,1012.23
2024-04-10T01:56:59.432Z,1012.26
2024-04-10T01:57:59.407Z,1012.24
2024-04-10T01:58:59.446Z,1012.24
2024-04-10T01:59:59.402Z,1012.26
2024-04-10T02:00:59.457Z,1012.26
2024-04-10T02:01:59.431Z,1012.30
2024-04-10T02:02:59.417Z,1012.32
2024-04-10T02:03:59.464Z,1012.35
2024-04-10T02:04:59.342Z,1012.36
2024-04-10T02:05:59.363Z,1012.40
2024-04-10T02:06:59.358Z,1012.43
2024-04-10T02:07:59.365Z,1012.50
2024-04-10T02:08:59.311Z,1012.53
2024-04-10T02:09:59.294Z,1012.54
2024-04-10T02:10:59.364Z,1012.56
2024-04-10T02:11:59.382Z,1012.58
2024-04-10T02:12:59.274Z,1012.59
2024-04-10T02:13:59.317Z,1012.60
2024-04-10T02:14:59.310Z,1012.59
2024-04-10T02:15:59.314Z,1012.56
2024-04-10T02:16:59.322Z,1012.54
2024-04-10T02:17:59.312Z,1012.56
2024-04-10T02:18:59.226Z,1012.58
2024-04-10T02:19:59.310Z,1012.59
2024-04-10T02:21:01.541Z,1012.61
2024-04-10T02:21:59.173Z,1012.56
2024-04-10T02:22:59.226Z,1012.49
2024-04-10T02:23:59.154Z,1012.47
2024-04-10T02:24:59.189Z,1012.43
2024-04-10T02:25:59.176Z,1012.41
2024-04-10T02:26:59.137Z,1012.40
2024-04-10T02:27:59.123Z,1012.37
2024-04-10T02:28:59.191Z,1012.35
2024-04-10T02:29:59.130Z,1012.30
2024-04-10T02:30:59.085Z,1012.25
2024-04-10T02:31:59.164Z,1012.21
2024-04-10T02:32:59.357Z,1012.20
2024-04-10T02:33:59.164Z,1012.16
2024-04-10T02:34:59.117Z,1012.19
2024-04-10T02:35:59.085Z,1012.16
2024-04-10T02:36:59.049Z,1012.15
2024-04-10T02:37:59.109Z,1012.13
2024-04-10T02:38:59.056Z,1012.12
2024-04-10T02:39:59.004Z,1012.12
2024-04-10T02:40:59.053Z,1012.13
2024-04-10T02:41:59.002Z,1012.16
2024-04-10T02:42:59.044Z,1012.17
2024-04-10T02:43:59.002Z,1012.20
2024-04-10T02:44:58.961Z,1012.24
2024-04-10T02:45:59.051Z,1012.24
2024-04-10T02:46:59.005Z,1012.25
2024-04-10T02:47:59.013Z,1012.27
2024-04-10T02:48:58.940Z,1012.30
2024-04-10T02:49:58.941Z,1012.37
2024-04-10T02:50:58.960Z,1012.46
2024-04-10T02:51:58.899Z,1012.54
2024-04-10T02:52:58.917Z,1012.61
2024-04-10T02:53:58.890Z,1012.66
2024-04-10T02:54:58.902Z,1012.68
2024-04-10T02:55:58.884Z,1012.69
2024-04-10T02:56:58.876Z,1012.70
2024-04-10T02:57:58.861Z,1012.71
2024-04-10T02:58:58.853Z,1012.72
2024-04-10T02:59:58.843Z,1012.73
2024-04-10T03:00:58.881Z,1012.75
2024-04-10T03:01:58.868Z,1012.76
2024-04-10T03:02:58.842Z,1012.79
2024-04-10T03:03:58.873Z,1012.82
2024-04-10T03:04:58.781Z,1012.85
2024-04-10T03:05:58.784Z,1012.86
2024-04-10T03:06:58.800Z,1012.86
2024-04-10T03:07:58.852Z,1012.89
2024-04-10T03:08:58.744Z,1012.94
2024-04-10T03:09:58.720Z,1012.96
2024-04-10T03:10:58.800Z,1012.96
2024-04-10T03:11:58.800Z,1012.95
2024-04-10T03:12:58.700Z,1012.92
2024-04-10T03:13:58.739Z,1012.91
2024-04-10T03:14:58.686Z,1012.90
2024-04-10T03:15:58.740Z,1012.91
2024-04-10T03:16:58.865Z,1012.92
2024-04-10T03:17:58.755Z,1012.92
2024-04-10T03:18:58.647Z,1012.92
2024-04-10T03:19:58.663Z,1012.91
2024-04-10T03:20:58.646Z,1012.94
2024-04-10T03:21:58.605Z,1012.96
2024-04-10T03:22:58.629Z,1012.98
2024-04-10T03:23:58.598Z,1012.99
2024-04-10T03:24:58.602Z,1012.98
2024-04-10T03:25:58.650Z,1012.99
2024-04-10T03:26:58.569Z,1012.99
2024-04-10T03:27:58.558Z,1013.01
2024-04-10T03:28:58.551Z,1013.04
2024-04-10T03:29:58.649Z,1013.06
2024-04-10T03:30:58.520Z,1013.10
2024-04-10T03:31:58.536Z,1013.12
2024-04-10T03:32:58.633Z,1013.16
2024-04-10T03:33:58.684Z,1013.18
2024-04-10T03:34:58.537Z,1013.23
2024-04-10T03:35:58.519Z,1013.25
2024-04-10T03:36:58.457Z,1013.26
2024-04-10T03:37:58.469Z,1013.24
2024-04-10T03:38:58.468Z,1013.24
2024-04-10T03:39:58.446Z,1013.27
2024-04-10T03:40:58.444Z,1013.28
2024-04-10T03:41:58.454Z,1013.31
2024-04-10T03:42:58.416Z,1013.34
2024-04-10T03:43:58.429Z,1013.38
2024-04-10T03:44:58.391Z,1013.43
2024-04-10T03:45:58.375Z,1013.47
2024-04-10T03:46:58.419Z,1013.52
2024-04-10T03:47:58.594Z,1013.62
2024-04-10T03:48:58.462Z,1013.68
2024-04-10T03:49:58.338Z,1013.72
2024-04-10T03:50:58.326Z,1013.72
2024-04-10T03:51:58.350Z,1013.76
2024-04-10T03:52:58.390Z,1013.76
2024-04-10T03:53:58.301Z,1013.76
2024-04-10T03:54:58.306Z,1013.77
2024-04-10T03:55:58.345Z,1013.82
2024-04-10T03:56:58.282Z,1013.85
2024-04-10T03:57:58.257Z,1013.86
2024-04-10T03:58:58.357Z,1013.89
2024-04-10T03:59:58.189Z,1013.88
2024-04-10T04:00:58.274Z,1013.88
2024-04-10T04:01:58.357Z,1013.87
2024-04-10T04:02:58.276Z,1013.85
2024-04-10T04:03:58.217Z,1013.89
2024-04-10T04:04:58.210Z,1013.95
2024-04-10T04:05:58.156Z,1013.98
2024-04-10T04:06:58.162Z,1014.01
2024-04-10T04:07:58.178Z,1014.02
2024-04-10T04:08:58.113Z,1014.03
2024-04-10T04:09:58.101Z,1014.01
2024-04-10T04:10:58.194Z,1014.02
2024-04-10T04:11:58.172Z,1014.03
2024-04-10T04:12:58.064Z,1014.05
2024-04-10T04:13:58.075Z,1014.03
2024-04-10T04:14:58.052Z,1014.03
2024-04-10T04:15:58.139Z,1014.03
2024-04-10T04:16:58.107Z,1014.04
2024-04-10T04:17:58.063Z,1014.04
2024-04-10T04:18:58.003Z,1014.08
2024-04-10T04:19:58.018Z,1014.04
2024-04-10T04:20:58.016Z,1014.03
2024-04-10T04:21:57.983Z,1014.03
2024-04-10T04:22:58.032Z,1014.01
2024-04-10T04:23:57.976Z,1014.04
2024-04-10T04:24:57.960Z,1014.05
2024-04-10T04:25:57.982Z,1014.05
2024-04-10T04:26:57.926Z,1014.04
2024-04-10T04:27:57.923Z,1014.02
2024-04-10T04:28:57.964Z,1014.04
2024-04-10T04:29:57.911Z,1014.03
2024-04-10T04:30:57.912Z,1014.02
2024-04-10T04:31:57.945Z,1014.03
2024-04-10T04:32:58.090Z,1014.03
2024-04-10T04:33:57.987Z,1014.04
2024-04-10T04:34:57.946Z,1014.06
2024-04-10T04:35:57.850Z,1014.08
2024-04-10T04:36:57.841Z,1014.11
2024-04-10T04:37:57.851Z,1014.13
2024-04-10T04:38:57.834Z,1014.14
2024-04-10T04:39:57.843Z,1014.14
2024-04-10T04:40:57.851Z,1014.15
2024-04-10T04:41:57.793Z,1014.20
2024-04-10T04:42:57.788Z,1014.17
2024-04-10T04:43:57.785Z,1014.19
2024-04-10T04:44:57.829Z,1014.22
2024-04-10T04:45:57.751Z,1014.24
2024-04-10T04:46:57.785Z,1014.23
2024-04-10T04:47:57.886Z,1014.27
2024-04-10T04:48:57.740Z,1014.26
2024-04-10T04:49:57.836Z,1014.27
2024-04-10T04:50:57.700Z,1014.30
2024-04-10T04:51:57.711Z,1014.31
2024-04-10T04:52:57.720Z,1014.34
2024-04-10T04:53:57.733Z,1014.38
2024-04-10T04:54:57.664Z,1014.36
2024-04-10T04:55:57.746Z,1014.41
2024-04-10T04:56:57.638Z,1014.41
2024-04-10T04:57:57.673Z,1014.42
2024-04-10T04:58:57.677Z,1014.45
2024-04-10T04:59:57.624Z,1014.45
2024-04-10T05:00:57.622Z,1014.45
2024-04-10T05:01:57.692Z,1014.48
2024-04-10T05:02:57.686Z,1014.51
2024-04-10T05:03:57.708Z,1014.50
2024-04-10T05:04:57.635Z,1014.51
2024-04-10T05:05:57.563Z,1014.51
2024-04-10T05:06:57.549Z,1014.50
2024-04-10T05:07:57.672Z,1014.51
2024-04-10T05:08:57.519Z,1014.51
2024-04-10T05:09:57.531Z,1014.52
2024-04-10T05:10:57.554Z,1014.56
2024-04-10T05:11:59.939Z,1014.58
2024-04-10T05:12:57.507Z,1014.59
2024-04-10T05:13:57.511Z,1014.62
2024-04-10T05:14:57.482Z,1014.64
2024-04-10T05:15:57.510Z,1014.67
2024-04-10T05:16:57.525Z,1014.70
2024-04-10T05:17:57.576Z,1014.73
2024-04-10T05:18:57.435Z,1014.76
2024-04-10T05:19:57.448Z,1014.75
2024-04-10T05:20:57.409Z,1014.74
2024-04-10T05:21:57.447Z,1014.73
2024-04-10T05:22:57.437Z,1014.72
2024-04-10T05:23:57.396Z,1014.73
2024-04-10T05:24:57.392Z,1014.75
2024-04-10T05:25:57.406Z,1014.75
2024-04-10T05:26:57.386Z,1014.76
2024-04-10T05:27:57.373Z,1014.76
2024-04-10T05:28:57.485Z,1014.80
2024-04-10T05:29:57.320Z,1014.79
2024-04-10T05:30:57.335Z,1014.80
2024-04-10T05:31:57.380Z,1014.81
2024-04-10T05:32:57.458Z,1014.81
2024-04-10T05:33:57.395Z,1014.81
2024-04-10T05:34:57.382Z,1014.84
2024-04-10T05:35:57.298Z,1014.86
2024-04-10T05:36:57.264Z,1014.88
2024-04-10T05:37:57.316Z,1014.89
2024-04-10T05:38:57.299Z,1014.89
2024-04-10T05:39:57.223Z,1014.89
2024-04-10T05:40:57.270Z,1014.92
2024-04-10T05:41:57.235Z,1014.92
2024-04-10T05:42:57.209Z,1014.96
2024-04-10T05:43:57.213Z,1014.96
2024-04-10T05:44:57.222Z,1014.97
2024-04-10T05:45:57.198Z,1014.96
2024-04-10T05:46:57.264Z,1014.95
2024-04-10T05:47:57.275Z,1014.95
2024-04-10T05:48:57.268Z,1014.93
2024-04-10T05:49:57.178Z,1014.93
2024-04-10T05:50:57.139Z,1014.95
2024-04-10T05:51:57.224Z,1014.95
2024-04-10T05:52:57.174Z,1014.98
2024-04-10T05:53:57.160Z,1015.00
2024-04-10T05:54:57.121Z,1015.02
2024-04-10T05:55:57.131Z,1015.04
2024-04-10T05:56:57.140Z,1015.06
2024-04-10T05:57:57.071Z,1015.07
2024-04-10T05:58:57.119Z,1015.10
2024-04-10T05:59:57.051Z,1015.10
2024-04-10T06:00:57.139Z,1015.11
2024-04-10T06:01:57.086Z,1015.13
2024-04-10T06:02:57.295Z,1015.14
2024-04-10T06:03:57.194Z,1015.15
2024-04-10T06:04:57.146Z,1015.16
2024-04-10T06:05:56.987Z,1015.15
2024-04-10T06:06:57.008Z,1015.16
2024-04-10T06:07:56.978Z,1015.16
2024-04-10T06:08:57.041Z,1015.17
2024-04-10T06:09:56.964Z,1015.18
2024-04-10T06:10:56.960Z,1015.17
2024-04-10T06:11:59.994Z,1015.19
2024-04-10T06:12:56.934Z,1015.19
2024-04-10T06:13:56.959Z,1015.20
2024-04-10T06:14:56.905Z,1015.21
2024-04-10T06:15:56.899Z,1015.21
2024-04-10T06:16:56.972Z,1015.22
2024-04-10T06:17:56.932Z,1015.23
2024-04-10T06:18:56.864Z,1015.25
2024-04-10T06:19:56.940Z,1015.26
2024-04-10T06:20:56.852Z,1015.28
2024-04-10T06:21:56.823Z,1015.29
2024-04-10T06:22:56.868Z,1015.30
2024-04-10T06:23:56.807Z,1015.29
2024-04-10T06:24:56.802Z,1015.29
2024-04-10T06:25:56.844Z,1015.32
2024-04-10T06:26:56.839Z,1015.35
2024-04-10T06:27:56.793Z,1015.37
2024-04-10T06:28:56.796Z,1015.40
2024-04-10T06:29:56.756Z,1015.42
2024-04-10T06:30:56.741Z,1015.42
2024-04-10T06:31:56.818Z,1015.44
2024-04-10T06:32:56.861Z,1015.45
2024-04-10T06:33:56.775Z,1015.45
2024-04-10T06:34:56.759Z,1015.46
2024-04-10T06:35:56.686Z,1015.49
2024-04-10T06:36:56.702Z,1015.50
2024-04-10T06:37:56.702Z,1015.53
2024-04-10T06:38:56.661Z,1015.55
2024-04-10T06:39:56.731Z,1015.57
2024-04-10T06:40:56.704Z,1015.60
2024-04-10T06:41:56.652Z,1015.62
2024-04-10T06:42:56.629Z,1015.63
2024-04-10T06:43:56.654Z,1015.63
2024-04-10T06:44:56.645Z,1015.64
2024-04-10T06:45:56.643Z,1015.66
2024-04-10T06:46:56.670Z,1015.66
2024-04-10T06:47:56.703Z,1015.66
2024-04-10T06:48:56.753Z,1015.68
2024-04-10T06:49:56.656Z,1015.69
2024-04-10T06:50:56.571Z,1015.72
2024-04-10T06:51:56.556Z,1015.75
2024-04-10T06:52:56.620Z,1015.77
2024-04-10T06:53:56.516Z,1015.79
2024-04-10T06:54:56.522Z,1015.80
2024-04-10T06:55:56.611Z,1015.82
2024-04-10T06:56:56.518Z,1015.84
2024-04-10T06:57:56.492Z,1015.86
2024-04-10T06:58:56.499Z,1015.89
2024-04-10T06:59:56.481Z,1015.90
2024-04-10T07:00:56.499Z,1015.91
2024-04-10T07:01:56.477Z,1015.91
2024-04-10T07:02:56.485Z,1015.90
2024-04-10T07:03:56.477Z,1015.88
2024-04-10T07:04:57.474Z,1015.89
2024-04-10T07:05:56.445Z,1015.91
2024-04-10T07:06:56.413Z,1015.87
2024-04-10T07:07:56.395Z,1015.88
2024-04-10T07:08:56.486Z,1015.87
2024-04-10T07:09:56.387Z,1015.88
2024-04-10T07:10:56.478Z,1015.89
2024-04-10T07:11:56.452Z,1015.90
2024-04-10T07:12:56.349Z,1015.91
2024-04-10T07:13:56.458Z,1015.92
2024-04-10T07:14:56.332Z,1015.91
2024-04-10T07:15:56.406Z,1015.91
2024-04-10T07:16:56.342Z,1015.92
2024-04-10T07:17:56.357Z,1015.92
2024-04-10T07:18:56.322Z,1015.95
2024-04-10T07:19:56.341Z,1015.96
2024-04-10T07:20:56.268Z,1015.95
2024-04-10T07:21:56.251Z,1015.95
2024-04-10T07:22:56.323Z,1015.95
2024-04-10T07:23:59.680Z,1015.94
2024-04-10T07:24:56.295Z,1015.95
2024-04-10T07:25:56.299Z,1015.95
2024-04-10T07:26:56.222Z,1015.95
2024-04-10T07:27:56.218Z,1015.96
2024-04-10T07:28:56.236Z,1015.97
2024-04-10T07:29:56.189Z,1015.98
2024-04-10T07:30:56.177Z,1016.02
2024-04-10T07:31:56.266Z,1016.05
2024-04-10T07:32:56.390Z,1016.07
2024-04-10T07:33:56.264Z,1016.08
2024-04-10T07:34:56.185Z,1016.10
2024-04-10T07:35:56.137Z,1016.10
2024-04-10T07:36:56.170Z,1016.12
2024-04-10T07:37:56.169Z,1016.13
2024-04-10T07:38:56.135Z,1016.15
2024-04-10T07:39:58.021Z,1016.17
2024-04-10T07:40:56.150Z,1016.17
2024-04-10T07:41:56.098Z,1016.17
2024-04-10T07:42:56.059Z,1016.17
2024-04-10T07:43:56.075Z,1016.18
2024-04-10T07:44:56.117Z,1016.20
2024-04-10T07:45:56.069Z,1016.22
2024-04-10T07:46:56.167Z,1016.23
2024-04-10T07:47:56.140Z,1016.27
2024-04-10T07:48:56.876Z,1016.29
2024-04-10T07:49:56.029Z,1016.31
2024-04-10T07:50:56.017Z,1016.33
2024-04-10T07:51:55.981Z,1016.33
2024-04-10T07:52:56.029Z,1016.33
2024-04-10T07:53:55.960Z,1016.31
2024-04-10T07:54:55.938Z,1016.30
2024-04-10T07:55:56.090Z,1016.27
2024-04-10T07:56:55.959Z,1016.27
2024-04-10T07:57:55.919Z,1016.30
2024-04-10T07:58:55.942Z,1016.31
2024-04-10T07:59:56.013Z,1016.34
2024-04-10T08:00:55.971Z,1016.33
2024-04-10T08:01:55.939Z,1016.36
2024-04-10T08:02:55.928Z,1016.36
2024-04-10T08:03:56.170Z,1016.36
2024-04-10T08:04:56.098Z,1016.39
2024-04-10T08:05:55.890Z,1016.40
2024-04-10T08:06:55.840Z,1016.41
2024-04-10T08:07:55.825Z,1016.41
2024-04-10T08:08:55.852Z,1016.43
2024-04-10T08:09:55.837Z,1016.46
2024-04-10T08:10:55.837Z,1016.47
2024-04-10T08:11:55.857Z,1016.51
2024-04-10T08:12:55.783Z,1016.55
2024-04-10T08:13:55.785Z,1016.54
2024-04-10T08:14:55.773Z,1016.55
2024-04-10T08:15:55.746Z,1016.57
2024-04-10T08:16:55.803Z,1016.56
2024-04-10T08:17:56.219Z,1016.56
2024-04-10T08:18:55.798Z,1016.61
2024-04-10T08:19:55.702Z,1016.61
2024-04-10T08:20:55.692Z,1016.64
2024-04-10T08:21:55.698Z,1016.65
2024-04-10T08:22:55.720Z,1016.64
2024-04-10T08:23:55.727Z,1016.66
2024-04-10T08:24:55.663Z,1016.68
2024-04-10T08:25:55.673Z,1016.70
2024-04-10T08:26:55.635Z,1016.74
2024-04-10T08:27:55.653Z,1016.74
2024-04-10T08:28:55.700Z,1016.70
2024-04-10T08:29:55.630Z,1016.71
2024-04-10T08:30:55.624Z,1016.74
2024-04-10T08:31:55.669Z,1016.73
2024-04-10T08:32:55.722Z,1016.74
2024-04-10T08:33:56.000Z,1016.74
2024-04-10T08:34:55.732Z,1016.76
2024-04-10T08:35:55.554Z,1016.77
2024-04-10T08:36:55.705Z,1016.74
2024-04-10T08:37:55.582Z,1016.78
2024-04-10T08:38:55.538Z,1016.81
2024-04-10T08:39:55.546Z,1016.78
2024-04-10T08:40:55.520Z,1016.80
2024-04-10T08:41:55.524Z,1016.82
2024-04-10T08:42:55.544Z,1016.85
2024-04-10T08:43:55.473Z,1016.87
2024-04-10T08:44:55.500Z,1016.93
2024-04-10T08:45:55.459Z,1016.96
2024-04-10T08:46:55.681Z,1016.95
2024-04-10T08:47:55.534Z,1017.00
2024-04-10T08:48:55.841Z,1017.02
2024-04-10T08:49:55.409Z,1017.05
2024-04-10T08:50:55.419Z,1017.11
2024-04-10T08:51:55.482Z,1017.16
2024-04-10T08:52:55.393Z,1017.19
2024-04-10T08:53:55.369Z,1017.17
2024-04-10T08:54:55.423Z,1017.18
2024-04-10T08:56:03.228Z,1017.21
2024-04-10T08:56:55.369Z,1017.21
2024-04-10T08:57:55.505Z,1017.24
2024-04-10T08:58:55.332Z,1017.28
2024-04-10T08:59:55.329Z,1017.31
2024-04-10T09:00:55.652Z,1017.32
2024-04-10T09:01:55.358Z,1017.30
2024-04-10T09:02:55.322Z,1017.30
2024-04-10T09:03:55.426Z,1017.33
2024-04-10T09:04:55.433Z,1017.30
2024-04-10T09:05:55.291Z,1017.28
2024-04-10T09:06:55.301Z,1017.27
2024-04-10T09:07:55.233Z,1017.28
2024-04-10T09:08:55.226Z,1017.28
2024-04-10T09:09:55.335Z,1017.30
2024-04-10T09:10:55.287Z,1017.30
2024-04-10T09:11:55.265Z,1017.32
2024-04-10T09:12:55.191Z,1017.35
2024-04-10T09:13:55.196Z,1017.35
2024-04-10T09:14:55.199Z,1017.39
2024-04-10T09:15:55.163Z,1017.40
2024-04-10T09:16:55.217Z,1017.40
2024-04-10T09:17:55.162Z,1017.42
2024-04-10T09:18:55.188Z,1017.49
2024-04-10T09:19:55.156Z,1017.45
2024-04-10T09:20:55.132Z,1017.44
2024-04-10T09:21:55.115Z,1017.44
2024-04-10T09:22:55.113Z,1017.44
2024-04-10T09:23:55.222Z,1017.46
2024-04-10T09:24:55.116Z,1017.50
2024-04-10T09:25:55.074Z,1017.47
2024-04-10T09:26:55.240Z,1017.50
2024-04-10T09:27:55.065Z,1017.53
2024-04-10T09:28:55.086Z,1017.54
2024-04-10T09:29:55.210Z,1017.56
2024-04-10T09:30:55.044Z,1017.59
2024-04-10T09:31:55.028Z,1017.61
2024-04-10T09:32:55.179Z,1017.60
2024-04-10T09:33:55.400Z,1017.64
2024-04-10T09:34:55.019Z,1017.64
2024-04-10T09:35:55.137Z,1017.66
2024-04-10T09:36:54.983Z,1017.65
2024-04-10T09:37:54.996Z,1017.66
2024-04-10T09:38:55.035Z,1017.65
2024-04-10T09:39:54.952Z,1017.64
2024-04-10T09:40:54.951Z,1017.65
2024-04-10T09:41:55.058Z,1017.67
2024-04-10T09:42:57.232Z,1017.67
2024-04-10T09:43:54.917Z,1017.68
2024-04-10T09:44:54.954Z,1017.70
2024-04-10T09:45:54.887Z,1017.71
2024-04-10T09:46:54.901Z,1017.72
2024-04-10T09:47:55.151Z,1017.75
2024-04-10T09:48:55.040Z,1017.75
2024-04-10T09:49:54.884Z,1017.76
2024-04-10T09:50:55.037Z,1017.73
2024-04-10T09:51:54.932Z,1017.77
2024-04-10T09:52:54.882Z,1017.75
2024-04-10T09:53:55.065Z,1017.78
2024-04-10T09:54:54.815Z,1017.77
2024-04-10T09:55:54.801Z,1017.77
2024-04-10T09:56:54.977Z,1017.77
2024-04-10T09:57:54.782Z,1017.77
2024-04-10T09:58:54.785Z,1017.78
2024-04-10T09:59:54.809Z,1017.75
2024-04-10T10:00:54.855Z,1017.74
2024-04-10T10:01:54.753Z,1017.75
2024-04-10T10:02:54.799Z,1017.74
2024-04-10T10:03:54.860Z,1017.72
2024-04-10T10:04:54.726Z,1017.74
2024-04-10T10:05:54.794Z,1017.75
2024-04-10T10:06:54.715Z,1017.77
2024-04-10T10:07:54.686Z,1017.80
2024-04-10T10:08:54.892Z,1017.82
2024-04-10T10:09:54.730Z,1017.81
2024-04-10T10:10:54.722Z,1017.85
2024-04-10T10:11:54.707Z,1017.85
2024-04-10T10:12:54.641Z,1017.81
2024-04-10T10:13:54.621Z,1017.82
2024-04-10T10:14:54.803Z,1017.83
2024-04-10T10:15:54.663Z,1017.86
2024-04-10T10:16:54.612Z,1017.83
2024-04-10T10:18:01.108Z,1017.82
2024-04-10T10:18:54.627Z,1017.83
2024-04-10T10:19:54.638Z,1017.82
2024-04-10T10:20:54.687Z,1017.80
2024-04-10T10:21:54.546Z,1017.81
2024-04-10T10:22:54.534Z,1017.85
2024-04-10T10:23:54.634Z,1017.83
2024-04-10T10:24:54.536Z,1017.83
2024-04-10T10:25:54.526Z,1017.81
2024-04-10T10:26:54.629Z,1017.83
2024-04-10T10:27:54.491Z,1017.84
2024-04-10T10:28:54.629Z,1017.88
2024-04-10T10:29:54.577Z,1017.96
2024-04-10T10:30:54.481Z,1017.90
2024-04-10T10:31:54.459Z,1017.94
2024-04-10T10:32:54.590Z,1017.91
2024-04-10T10:33:54.808Z,1017.93
2024-04-10T10:34:54.483Z,1017.99
2024-04-10T10:35:54.480Z,1017.90
2024-04-10T10:36:54.414Z,1017.93
2024-04-10T10:37:54.427Z,1017.93
2024-04-10T10:38:54.441Z,1017.96
2024-04-10T10:39:54.414Z,1017.93
2024-04-10T10:40:54.377Z,1017.95
2024-04-10T10:41:54.397Z,1018.03
2024-04-10T10:42:54.380Z,1018.07
2024-04-10T10:43:54.363Z,1018.08
2024-04-10T10:44:54.397Z,1018.07
2024-04-10T10:45:54.344Z,1018.08
2024-04-10T10:46:54.345Z,1018.09
2024-04-10T10:47:54.508Z,1018.07
2024-04-10T10:48:54.321Z,1018.13
2024-04-10T10:49:54.304Z,1018.13
2024-04-10T10:50:54.408Z,1018.12
2024-04-10T10:51:54.318Z,1018.14
2024-04-10T10:52:54.320Z,1018.15
2024-04-10T10:53:54.428Z,1018.16
2024-04-10T10:54:54.254Z,1018.20
2024-04-10T10:55:54.258Z,1018.25
2024-04-10T10:56:54.380Z,1018.32
2024-04-10T10:57:54.249Z,1018.37
2024-04-10T10:58:54.229Z,1018.39
2024-04-10T10:59:54.390Z,1018.46
2024-04-10T11:00:54.291Z,1018.46
2024-04-10T11:01:54.223Z,1018.50
2024-04-10T11:02:54.287Z,1018.48
2024-04-10T11:03:54.477Z,1018.49
2024-04-10T11:04:54.246Z,1018.48
2024-04-10T11:05:54.297Z,1018.46
2024-04-10T11:06:54.182Z,1018.42
2024-04-10T11:07:54.142Z,1018.45
2024-04-10T11:08:54.275Z,1018.43
2024-04-10T11:09:54.124Z,1018.47
2024-04-10T11:10:54.200Z,1018.47
2024-04-10T11:11:54.228Z,1018.50
2024-04-10T11:12:54.099Z,1018.51
2024-04-10T11:13:54.081Z,1018.48
2024-04-10T11:14:54.112Z,1018.50
2024-04-10T11:15:54.135Z,1018.46
2024-04-10T11:16:54.095Z,1018.48
2024-04-10T11:17:54.161Z,1018.50
2024-04-10T11:18:54.102Z,1018.53
2024-04-10T11:19:54.058Z,1018.52
2024-04-10T11:20:54.387Z,1018.48
2024-04-10T11:21:54.003Z,1018.47
2024-04-10T11:22:53.994Z,1018.51
2024-04-10T11:23:54.178Z,1018.50
2024-04-10T11:24:54.010Z,1018.46
2024-04-10T11:25:53.963Z,1018.45
2024-04-10T11:26:54.110Z,1018.49
2024-04-10T11:27:53.955Z,1018.50
2024-04-10T11:28:53.955Z,1018.50
2024-04-10T11:29:54.212Z,1018.53
2024-04-10T11:30:53.931Z,1018.54
2024-04-10T11:31:53.911Z,1018.52
2024-04-10T11:32:53.992Z,1018.52
2024-04-10T11:33:54.123Z,1018.52
2024-04-10T11:34:53.919Z,1018.52
2024-04-10T11:35:53.895Z,1018.54
2024-04-10T11:36:53.853Z,1018.56
2024-04-10T11:37:53.850Z,1018.60
2024-04-10T11:38:54.031Z,1018.61
2024-04-10T11:39:53.849Z,1018.64
2024-04-10T11:40:53.832Z,1018.65
2024-04-10T11:41:53.995Z,1018.69
2024-04-10T11:42:53.807Z,1018.61
2024-04-10T11:43:53.824Z,1018.65
2024-04-10T11:44:53.873Z,1018.66
2024-04-10T11:45:53.785Z,1018.68
2024-04-10T11:46:53.805Z,1018.72
2024-04-10T11:47:53.886Z,1018.67
2024-04-10T11:48:53.905Z,1018.62
2024-04-10T11:49:53.751Z,1018.63
2024-04-10T11:50:53.799Z,1018.64
2024-04-10T11:51:53.763Z,1018.67
2024-04-10T11:52:53.767Z,1018.70
2024-04-10T11:53:53.758Z,1018.71
2024-04-10T11:54:53.702Z,1018.74
2024-04-10T11:55:53.692Z,1018.73
2024-04-10T11:56:53.746Z,1018.70
2024-04-10T11:57:53.690Z,1018.71
2024-04-10T11:58:53.680Z,1018.70
2024-04-10T11:59:53.680Z,1018.70
2024-04-10T12:00:53.712Z,1018.77
2024-04-10T12:01:53.668Z,1018.76
2024-04-10T12:02:53.800Z,1018.76
2024-04-10T12:03:53.789Z,1018.75
2024-04-10T12:04:53.760Z,1018.76
2024-04-10T12:05:53.692Z,1018.79